sensor_id;sensor_type;location;lat;lon;timestamp;P1;durP1;ratioP1;P2;durP2;ratioP2
8665;SDS011;4370;48.916;8.380;2022-09-27T00:01:12;1.40;;;1.30;;
8665;SDS011;4370;48.916;8.380;2022-09-27T00:03:39;3.33;;;1.30;;
8665;SDS011;4370;48.916;8.380;2022-09-27T00:06:10;1.50;;;1.40;;
8665;SDS011;4370;48.916;8.380;2022-09-27T00:08:38;2.10;;;1.50;;
8665;SDS011;4370;48.916;8.380;2022-09-27T00:11:10;1.40;;;1.30;;
8665;SDS011;4370;48.916;8.380;2022-09-27T00:13:41;2.07;;;1.40;;
8665;SDS011;4370;48.916;8.380;2022-09-27T00:16:08;1.40;;;1.30;;
8665;SDS011;4370;48.916;8.380;2022-09-27T00:18:34;3.43;;;1.50;;
8665;SDS011;4370;48.916;8.380;2022-09-27T00:21:06;1.93;;;1.60;;
8665;SDS011;4370;48.916;8.380;2022-09-27T00:23:34;1.80;;;1.50;;
8665;SDS011;4370;48.916;8.380;2022-09-27T00:26:00;4.17;;;1.50;;
8665;SDS011;4370;48.916;8.380;2022-09-27T00:28:26;3.93;;;1.80;;
8665;SDS011;4370;48.916;8.380;2022-09-27T00:30:52;3.77;;;1.60;;
8665;SDS011;4370;48.916;8.380;2022-09-27T00:33:18;5.33;;;1.90;;
8665;SDS011;4370;48.916;8.380;2022-09-27T00:35:44;3.30;;;1.70;;
8665;SDS011;4370;48.916;8.380;2022-09-27T00:38:10;1.97;;;1.77;;
8665;SDS011;4370;48.916;8.380;2022-09-27T00:40:36;3.33;;;1.90;;
8665;SDS011;4370;48.916;8.380;2022-09-27T00:43:07;3.67;;;1.80;;
8665;SDS011;4370;48.916;8.380;2022-09-27T00:45:39;4.43;;;2.00;;
8665;SDS011;4370;48.916;8.380;2022-09-27T00:48:05;1.97;;;1.80;;
8665;SDS011;4370;48.916;8.380;2022-09-27T00:50:33;2.10;;;1.83;;
8665;SDS011;4370;48.916;8.380;2022-09-27T00:55:29;2.80;;;1.73;;
8665;SDS011;4370;48.916;8.380;2022-09-27T00:57:58;2.20;;;1.80;;
8665;SDS011;4370;48.916;8.380;2022-09-27T01:00:24;1.90;;;1.80;;
8665;SDS011;4370;48.916;8.380;2022-09-27T01:02:51;2.67;;;1.80;;
8665;SDS011;4370;48.916;8.380;2022-09-27T01:05:19;4.37;;;2.00;;
8665;SDS011;4370;48.916;8.380;2022-09-27T01:07:47;2.87;;;1.93;;
8665;SDS011;4370;48.916;8.380;2022-09-27T01:10:13;2.73;;;1.83;;
8665;SDS011;4370;48.916;8.380;2022-09-27T01:12:48;2.10;;;1.90;;
8665;SDS011;4370;48.916;8.380;2022-09-27T01:23:33;5.27;;;1.90;;
8665;SDS011;4370;48.916;8.380;2022-09-27T01:26:14;2.17;;;1.90;;
8665;SDS011;4370;48.916;8.380;2022-09-27T01:31:33;1.90;;;1.70;;
8665;SDS011;4370;48.916;8.380;2022-09-27T01:34:10;1.80;;;1.50;;
8665;SDS011;4370;48.916;8.380;2022-09-27T01:39:52;2.07;;;1.70;;
8665;SDS011;4370;48.916;8.380;2022-09-27T01:42:22;4.80;;;1.87;;
8665;SDS011;4370;48.916;8.380;2022-09-27T01:47:21;1.67;;;1.57;;
8665;SDS011;4370;48.916;8.380;2022-09-27T01:52:15;4.63;;;1.70;;
8665;SDS011;4370;48.916;8.380;2022-09-27T01:54:46;2.70;;;1.80;;
8665;SDS011;4370;48.916;8.380;2022-09-27T01:57:18;4.17;;;1.93;;
8665;SDS011;4370;48.916;8.380;2022-09-27T01:59:57;5.67;;;1.83;;
8665;SDS011;4370;48.916;8.380;2022-09-27T02:02:26;1.70;;;1.60;;
8665;SDS011;4370;48.916;8.380;2022-09-27T02:04:57;3.53;;;1.80;;
8665;SDS011;4370;48.916;8.380;2022-09-27T02:07:27;5.83;;;2.00;;
8665;SDS011;4370;48.916;8.380;2022-09-27T02:10:01;4.70;;;1.90;;
8665;SDS011;4370;48.916;8.380;2022-09-27T02:13:04;9.40;;;2.00;;
8665;SDS011;4370;48.916;8.380;2022-09-27T02:15:52;5.77;;;1.90;;
8665;SDS011;4370;48.916;8.380;2022-09-27T02:18:48;6.13;;;2.47;;
8665;SDS011;4370;48.916;8.380;2022-09-27T02:21:15;4.90;;;1.90;;
8665;SDS011;4370;48.916;8.380;2022-09-27T02:23:45;2.93;;;2.10;;
8665;SDS011;4370;48.916;8.380;2022-09-27T02:26:25;4.00;;;1.83;;
8665;SDS011;4370;48.916;8.380;2022-09-27T02:31:22;3.70;;;2.00;;
8665;SDS011;4370;48.916;8.380;2022-09-27T02:34:00;4.57;;;1.83;;
8665;SDS011;4370;48.916;8.380;2022-09-27T02:36:30;5.23;;;2.33;;
8665;SDS011;4370;48.916;8.380;2022-09-27T02:38:56;5.30;;;2.20;;
8665;SDS011;4370;48.916;8.380;2022-09-27T02:41:22;3.30;;;2.10;;
8665;SDS011;4370;48.916;8.380;2022-09-27T02:43:52;4.97;;;2.47;;
8665;SDS011;4370;48.916;8.380;2022-09-27T02:49:09;5.80;;;2.40;;
8665;SDS011;4370;48.916;8.380;2022-09-27T02:55:02;7.13;;;2.43;;
8665;SDS011;4370;48.916;8.380;2022-09-27T02:57:47;6.63;;;2.70;;
8665;SDS011;4370;48.916;8.380;2022-09-27T03:00:35;4.27;;;2.20;;
8665;SDS011;4370;48.916;8.380;2022-09-27T03:03:10;6.30;;;2.40;;
8665;SDS011;4370;48.916;8.380;2022-09-27T03:05:41;7.60;;;2.80;;
8665;SDS011;4370;48.916;8.380;2022-09-27T03:08:11;6.33;;;2.60;;
8665;SDS011;4370;48.916;8.380;2022-09-27T03:10:37;9.70;;;3.20;;
8665;SDS011;4370;48.916;8.380;2022-09-27T03:13:03;8.37;;;2.70;;
8665;SDS011;4370;48.916;8.380;2022-09-27T03:15:29;8.70;;;2.97;;
8665;SDS011;4370;48.916;8.380;2022-09-27T03:17:56;5.17;;;2.70;;
8665;SDS011;4370;48.916;8.380;2022-09-27T03:20:22;10.20;;;3.20;;
8665;SDS011;4370;48.916;8.380;2022-09-27T03:22:48;8.93;;;2.67;;
8665;SDS011;4370;48.916;8.380;2022-09-27T03:25:13;6.97;;;2.53;;
8665;SDS011;4370;48.916;8.380;2022-09-27T03:27:39;6.70;;;2.80;;
8665;SDS011;4370;48.916;8.380;2022-09-27T03:30:05;8.37;;;2.90;;
8665;SDS011;4370;48.916;8.380;2022-09-27T03:32:32;8.20;;;3.10;;
8665;SDS011;4370;48.916;8.380;2022-09-27T03:34:58;8.80;;;3.10;;
8665;SDS011;4370;48.916;8.380;2022-09-27T03:37:24;8.43;;;3.03;;
8665;SDS011;4370;48.916;8.380;2022-09-27T03:39:53;8.93;;;2.93;;
8665;SDS011;4370;48.916;8.380;2022-09-27T03:42:19;6.93;;;3.17;;
8665;SDS011;4370;48.916;8.380;2022-09-27T03:44:45;10.00;;;3.30;;
8665;SDS011;4370;48.916;8.380;2022-09-27T03:47:11;9.20;;;2.90;;
8665;SDS011;4370;48.916;8.380;2022-09-27T03:49:37;7.73;;;3.27;;
8665;SDS011;4370;48.916;8.380;2022-09-27T03:52:02;7.07;;;2.50;;
8665;SDS011;4370;48.916;8.380;2022-09-27T03:54:28;9.57;;;2.90;;
8665;SDS011;4370;48.916;8.380;2022-09-27T03:56:54;6.87;;;2.50;;
8665;SDS011;4370;48.916;8.380;2022-09-27T03:59:20;9.20;;;3.00;;
8665;SDS011;4370;48.916;8.380;2022-09-27T04:01:46;7.90;;;2.67;;
8665;SDS011;4370;48.916;8.380;2022-09-27T04:04:12;5.83;;;2.70;;
8665;SDS011;4370;48.916;8.380;2022-09-27T04:06:38;9.57;;;3.20;;
8665;SDS011;4370;48.916;8.380;2022-09-27T04:09:04;6.93;;;2.70;;
8665;SDS011;4370;48.916;8.380;2022-09-27T04:11:30;13.00;;;3.00;;
8665;SDS011;4370;48.916;8.380;2022-09-27T04:13:56;13.60;;;2.83;;
8665;SDS011;4370;48.916;8.380;2022-09-27T04:16:22;7.73;;;3.20;;
8665;SDS011;4370;48.916;8.380;2022-09-27T04:18:49;9.83;;;3.07;;
8665;SDS011;4370;48.916;8.380;2022-09-27T04:21:15;8.97;;;2.90;;
8665;SDS011;4370;48.916;8.380;2022-09-27T04:23:41;4.23;;;2.67;;
8665;SDS011;4370;48.916;8.380;2022-09-27T04:26:07;6.53;;;2.73;;
8665;SDS011;4370;48.916;8.380;2022-09-27T04:28:33;8.93;;;2.90;;
8665;SDS011;4370;48.916;8.380;2022-09-27T04:30:59;7.63;;;2.83;;
8665;SDS011;4370;48.916;8.380;2022-09-27T04:33:25;7.17;;;2.67;;
8665;SDS011;4370;48.916;8.380;2022-09-27T04:35:51;8.87;;;3.13;;
8665;SDS011;4370;48.916;8.380;2022-09-27T04:38:35;9.20;;;2.67;;
8665;SDS011;4370;48.916;8.380;2022-09-27T04:41:01;9.93;;;3.20;;
8665;SDS011;4370;48.916;8.380;2022-09-27T04:43:27;9.67;;;3.00;;
8665;SDS011;4370;48.916;8.380;2022-09-27T04:45:53;9.37;;;2.90;;
8665;SDS011;4370;48.916;8.380;2022-09-27T04:48:19;9.83;;;3.50;;
8665;SDS011;4370;48.916;8.380;2022-09-27T04:50:45;7.27;;;2.80;;
8665;SDS011;4370;48.916;8.380;2022-09-27T04:53:12;9.77;;;2.93;;
8665;SDS011;4370;48.916;8.380;2022-09-27T04:55:39;8.77;;;3.07;;
8665;SDS011;4370;48.916;8.380;2022-09-27T04:58:04;7.57;;;2.67;;
8665;SDS011;4370;48.916;8.380;2022-09-27T05:00:30;10.77;;;3.20;;
8665;SDS011;4370;48.916;8.380;2022-09-27T05:02:56;10.33;;;2.90;;
8665;SDS011;4370;48.916;8.380;2022-09-27T05:05:22;6.30;;;2.60;;
8665;SDS011;4370;48.916;8.380;2022-09-27T05:07:48;5.77;;;2.83;;
8665;SDS011;4370;48.916;8.380;2022-09-27T05:10:14;7.83;;;2.93;;
8665;SDS011;4370;48.916;8.380;2022-09-27T05:12:40;9.53;;;2.90;;
8665;SDS011;4370;48.916;8.380;2022-09-27T05:15:07;7.83;;;2.97;;
8665;SDS011;4370;48.916;8.380;2022-09-27T05:17:33;11.20;;;3.00;;
8665;SDS011;4370;48.916;8.380;2022-09-27T05:19:59;6.80;;;3.10;;
8665;SDS011;4370;48.916;8.380;2022-09-27T05:22:25;8.67;;;2.80;;
8665;SDS011;4370;48.916;8.380;2022-09-27T05:24:51;6.60;;;2.70;;
8665;SDS011;4370;48.916;8.380;2022-09-27T05:27:16;7.60;;;2.70;;
8665;SDS011;4370;48.916;8.380;2022-09-27T05:29:44;7.20;;;2.60;;
8665;SDS011;4370;48.916;8.380;2022-09-27T05:32:10;6.47;;;2.50;;
8665;SDS011;4370;48.916;8.380;2022-09-27T05:34:36;3.47;;;2.10;;
8665;SDS011;4370;48.916;8.380;2022-09-27T05:37:02;4.00;;;2.40;;
8665;SDS011;4370;48.916;8.380;2022-09-27T05:39:28;5.07;;;2.20;;
8665;SDS011;4370;48.916;8.380;2022-09-27T05:41:54;6.67;;;2.17;;
8665;SDS011;4370;48.916;8.380;2022-09-27T05:44:21;4.83;;;2.27;;
8665;SDS011;4370;48.916;8.380;2022-09-27T05:46:47;7.67;;;2.10;;
8665;SDS011;4370;48.916;8.380;2022-09-27T05:49:13;4.33;;;2.10;;
8665;SDS011;4370;48.916;8.380;2022-09-27T05:51:39;6.37;;;2.00;;
8665;SDS011;4370;48.916;8.380;2022-09-27T05:54:06;3.07;;;1.90;;
8665;SDS011;4370;48.916;8.380;2022-09-27T05:56:31;3.57;;;1.80;;
8665;SDS011;4370;48.916;8.380;2022-09-27T05:58:57;5.87;;;1.90;;
8665;SDS011;4370;48.916;8.380;2022-09-27T06:01:23;8.30;;;2.17;;
8665;SDS011;4370;48.916;8.380;2022-09-27T06:03:52;5.00;;;1.80;;
8665;SDS011;4370;48.916;8.380;2022-09-27T06:06:19;4.50;;;2.10;;
8665;SDS011;4370;48.916;8.380;2022-09-27T06:08:46;3.47;;;1.70;;
8665;SDS011;4370;48.916;8.380;2022-09-27T06:11:13;4.83;;;2.00;;
8665;SDS011;4370;48.916;8.380;2022-09-27T06:13:39;5.40;;;1.80;;
8665;SDS011;4370;48.916;8.380;2022-09-27T06:16:05;2.33;;;1.53;;
8665;SDS011;4370;48.916;8.380;2022-09-27T06:18:33;4.83;;;2.20;;
8665;SDS011;4370;48.916;8.380;2022-09-27T06:20:59;4.13;;;2.17;;
8665;SDS011;4370;48.916;8.380;2022-09-27T06:23:25;3.73;;;1.90;;
8665;SDS011;4370;48.916;8.380;2022-09-27T06:25:52;3.03;;;1.97;;
8665;SDS011;4370;48.916;8.380;2022-09-27T06:28:19;2.63;;;1.60;;
8665;SDS011;4370;48.916;8.380;2022-09-27T06:30:45;2.00;;;1.80;;
8665;SDS011;4370;48.916;8.380;2022-09-27T06:33:15;5.57;;;1.73;;
8665;SDS011;4370;48.916;8.380;2022-09-27T06:35:43;3.53;;;1.70;;
8665;SDS011;4370;48.916;8.380;2022-09-27T06:38:10;3.00;;;1.80;;
8665;SDS011;4370;48.916;8.380;2022-09-27T06:40:39;3.73;;;1.70;;
8665;SDS011;4370;48.916;8.380;2022-09-27T06:43:06;3.17;;;2.00;;
8665;SDS011;4370;48.916;8.380;2022-09-27T06:45:34;2.47;;;1.57;;
8665;SDS011;4370;48.916;8.380;2022-09-27T06:48:00;3.23;;;1.50;;
8665;SDS011;4370;48.916;8.380;2022-09-27T06:50:27;2.60;;;1.40;;
8665;SDS011;4370;48.916;8.380;2022-09-27T06:52:54;5.80;;;1.60;;
8665;SDS011;4370;48.916;8.380;2022-09-27T06:55:20;2.87;;;1.50;;
8665;SDS011;4370;48.916;8.380;2022-09-27T06:57:46;3.57;;;1.90;;
8665;SDS011;4370;48.916;8.380;2022-09-27T07:00:30;2.90;;;1.50;;
8665;SDS011;4370;48.916;8.380;2022-09-27T07:02:57;5.43;;;1.70;;
8665;SDS011;4370;48.916;8.380;2022-09-27T07:05:26;4.13;;;1.53;;
8665;SDS011;4370;48.916;8.380;2022-09-27T07:07:53;2.13;;;1.40;;
8665;SDS011;4370;48.916;8.380;2022-09-27T07:10:21;3.13;;;1.50;;
8665;SDS011;4370;48.916;8.380;2022-09-27T07:12:47;2.47;;;1.30;;
8665;SDS011;4370;48.916;8.380;2022-09-27T07:15:13;5.37;;;1.30;;
8665;SDS011;4370;48.916;8.380;2022-09-27T07:17:39;3.93;;;1.67;;
8665;SDS011;4370;48.916;8.380;2022-09-27T07:20:06;4.10;;;1.70;;
8665;SDS011;4370;48.916;8.380;2022-09-27T07:22:38;2.53;;;1.10;;
8665;SDS011;4370;48.916;8.380;2022-09-27T07:25:05;1.87;;;1.40;;
8665;SDS011;4370;48.916;8.380;2022-09-27T07:27:31;3.43;;;1.57;;
8665;SDS011;4370;48.916;8.380;2022-09-27T07:29:59;2.07;;;1.23;;
8665;SDS011;4370;48.916;8.380;2022-09-27T07:32:24;2.60;;;1.50;;
8665;SDS011;4370;48.916;8.380;2022-09-27T07:34:50;5.10;;;1.80;;
8665;SDS011;4370;48.916;8.380;2022-09-27T07:37:16;1.97;;;1.50;;
8665;SDS011;4370;48.916;8.380;2022-09-27T07:39:42;1.70;;;1.50;;
8665;SDS011;4370;48.916;8.380;2022-09-27T07:42:08;2.43;;;1.63;;
8665;SDS011;4370;48.916;8.380;2022-09-27T07:44:34;5.73;;;1.50;;
8665;SDS011;4370;48.916;8.380;2022-09-27T07:47:00;2.80;;;1.50;;
8665;SDS011;4370;48.916;8.380;2022-09-27T07:49:26;2.63;;;1.30;;
8665;SDS011;4370;48.916;8.380;2022-09-27T07:51:52;2.97;;;1.60;;
8665;SDS011;4370;48.916;8.380;2022-09-27T07:54:18;2.97;;;1.53;;
8665;SDS011;4370;48.916;8.380;2022-09-27T07:56:44;2.40;;;1.20;;
8665;SDS011;4370;48.916;8.380;2022-09-27T07:59:11;3.73;;;1.50;;
8665;SDS011;4370;48.916;8.380;2022-09-27T08:01:37;3.67;;;1.50;;
8665;SDS011;4370;48.916;8.380;2022-09-27T08:04:03;2.70;;;1.50;;
8665;SDS011;4370;48.916;8.380;2022-09-27T08:06:29;2.17;;;1.40;;
8665;SDS011;4370;48.916;8.380;2022-09-27T08:08:55;4.60;;;1.33;;
8665;SDS011;4370;48.916;8.380;2022-09-27T08:11:23;2.90;;;1.47;;
8665;SDS011;4370;48.916;8.380;2022-09-27T08:13:49;1.70;;;1.20;;
8665;SDS011;4370;48.916;8.380;2022-09-27T08:16:20;3.37;;;1.30;;
8665;SDS011;4370;48.916;8.380;2022-09-27T08:18:46;2.30;;;1.30;;
8665;SDS011;4370;48.916;8.380;2022-09-27T08:21:12;4.63;;;1.60;;
8665;SDS011;4370;48.916;8.380;2022-09-27T08:23:38;3.90;;;1.60;;
8665;SDS011;4370;48.916;8.380;2022-09-27T08:26:04;3.07;;;1.50;;
8665;SDS011;4370;48.916;8.380;2022-09-27T08:28:30;1.60;;;1.23;;
8665;SDS011;4370;48.916;8.380;2022-09-27T08:30:56;2.63;;;1.23;;
8665;SDS011;4370;48.916;8.380;2022-09-27T08:33:25;1.33;;;1.23;;
8665;SDS011;4370;48.916;8.380;2022-09-27T08:35:51;3.37;;;2.07;;
8665;SDS011;4370;48.916;8.380;2022-09-27T08:38:17;3.73;;;1.50;;
8665;SDS011;4370;48.916;8.380;2022-09-27T08:40:56;5.73;;;1.33;;
8665;SDS011;4370;48.916;8.380;2022-09-27T08:43:38;1.80;;;1.30;;
8665;SDS011;4370;48.916;8.380;2022-09-27T08:46:20;4.50;;;1.70;;
8665;SDS011;4370;48.916;8.380;2022-09-27T08:48:57;2.77;;;1.73;;
8665;SDS011;4370;48.916;8.380;2022-09-27T08:51:29;4.17;;;1.70;;
8665;SDS011;4370;48.916;8.380;2022-09-27T08:54:02;2.77;;;1.80;;
8665;SDS011;4370;48.916;8.380;2022-09-27T08:56:32;6.13;;;2.00;;
8665;SDS011;4370;48.916;8.380;2022-09-27T08:59:00;3.07;;;1.83;;
8665;SDS011;4370;48.916;8.380;2022-09-27T09:01:34;2.70;;;1.70;;
8665;SDS011;4370;48.916;8.380;2022-09-27T09:04:00;2.87;;;1.77;;
8665;SDS011;4370;48.916;8.380;2022-09-27T09:12:20;3.10;;;1.77;;
8665;SDS011;4370;48.916;8.380;2022-09-27T09:15:17;2.50;;;1.60;;
8665;SDS011;4370;48.916;8.380;2022-09-27T09:18:41;5.37;;;1.80;;
8665;SDS011;4370;48.916;8.380;2022-09-27T09:26:38;3.47;;;1.67;;
8665;SDS011;4370;48.916;8.380;2022-09-27T09:31:55;4.20;;;1.60;;
8665;SDS011;4370;48.916;8.380;2022-09-27T09:34:33;3.27;;;1.70;;
8665;SDS011;4370;48.916;8.380;2022-09-27T09:39:41;3.67;;;2.10;;
8665;SDS011;4370;48.916;8.380;2022-09-27T09:42:27;4.23;;;1.67;;
8665;SDS011;4370;48.916;8.380;2022-09-27T09:44:58;4.80;;;1.60;;
8665;SDS011;4370;48.916;8.380;2022-09-27T09:49:55;5.20;;;2.00;;
8665;SDS011;4370;48.916;8.380;2022-09-27T09:52:27;4.20;;;2.13;;
8665;SDS011;4370;48.916;8.380;2022-09-27T09:55:03;3.93;;;1.80;;
8665;SDS011;4370;48.916;8.380;2022-09-27T09:57:39;3.50;;;1.77;;
8665;SDS011;4370;48.916;8.380;2022-09-27T10:00:15;5.77;;;2.00;;
8665;SDS011;4370;48.916;8.380;2022-09-27T10:02:43;4.50;;;2.10;;
8665;SDS011;4370;48.916;8.380;2022-09-27T10:05:17;4.40;;;2.07;;
8665;SDS011;4370;48.916;8.380;2022-09-27T10:07:45;3.57;;;1.93;;
8665;SDS011;4370;48.916;8.380;2022-09-27T10:10:15;3.70;;;1.90;;
8665;SDS011;4370;48.916;8.380;2022-09-27T10:12:43;3.67;;;2.03;;
8665;SDS011;4370;48.916;8.380;2022-09-27T10:15:13;3.90;;;1.93;;
8665;SDS011;4370;48.916;8.380;2022-09-27T10:17:43;6.00;;;2.77;;
8665;SDS011;4370;48.916;8.380;2022-09-27T10:20:35;4.23;;;2.10;;
8665;SDS011;4370;48.916;8.380;2022-09-27T10:23:11;4.73;;;2.10;;
8665;SDS011;4370;48.916;8.380;2022-09-27T10:25:52;3.60;;;2.30;;
8665;SDS011;4370;48.916;8.380;2022-09-27T10:28:26;3.60;;;2.00;;
8665;SDS011;4370;48.916;8.380;2022-09-27T10:31:08;7.20;;;2.50;;
8665;SDS011;4370;48.916;8.380;2022-09-27T10:33:36;3.83;;;2.10;;
8665;SDS011;4370;48.916;8.380;2022-09-27T10:36:23;5.20;;;2.87;;
8665;SDS011;4370;48.916;8.380;2022-09-27T10:38:52;3.67;;;2.37;;
8665;SDS011;4370;48.916;8.380;2022-09-27T10:41:23;3.43;;;2.37;;
8665;SDS011;4370;48.916;8.380;2022-09-27T10:43:51;3.40;;;1.30;;
8665;SDS011;4370;48.916;8.380;2022-09-27T10:46:23;2.30;;;1.00;;
8665;SDS011;4370;48.916;8.380;2022-09-27T10:49:09;3.83;;;1.40;;
8665;SDS011;4370;48.916;8.380;2022-09-27T10:51:42;2.63;;;0.90;;
8665;SDS011;4370;48.916;8.380;2022-09-27T10:54:22;1.77;;;1.10;;
8665;SDS011;4370;48.916;8.380;2022-09-27T10:56:55;1.77;;;1.00;;
8665;SDS011;4370;48.916;8.380;2022-09-27T10:59:24;1.37;;;1.10;;
8665;SDS011;4370;48.916;8.380;2022-09-27T11:01:52;1.30;;;1.03;;
8665;SDS011;4370;48.916;8.380;2022-09-27T11:04:19;0.90;;;0.90;;
8665;SDS011;4370;48.916;8.380;2022-09-27T11:09:52;1.20;;;1.10;;
8665;SDS011;4370;48.916;8.380;2022-09-27T11:12:19;1.10;;;1.03;;
8665;SDS011;4370;48.916;8.380;2022-09-27T11:14:55;2.43;;;1.20;;
8665;SDS011;4370;48.916;8.380;2022-09-27T11:18:02;1.50;;;1.40;;
8665;SDS011;4370;48.916;8.380;2022-09-27T11:20:38;2.60;;;1.90;;
8665;SDS011;4370;48.916;8.380;2022-09-27T11:26:16;2.50;;;1.40;;
8665;SDS011;4370;48.916;8.380;2022-09-27T11:29:07;2.33;;;1.67;;
8665;SDS011;4370;48.916;8.380;2022-09-27T11:34:37;1.57;;;1.30;;
8665;SDS011;4370;48.916;8.380;2022-09-27T11:48:12;2.03;;;1.20;;
8665;SDS011;4370;48.916;8.380;2022-09-27T11:53:18;2.07;;;1.70;;
8665;SDS011;4370;48.916;8.380;2022-09-27T11:58:47;2.73;;;1.50;;
8665;SDS011;4370;48.916;8.380;2022-09-27T12:06:57;3.30;;;1.60;;
8665;SDS011;4370;48.916;8.380;2022-09-27T12:09:33;2.03;;;1.70;;
8665;SDS011;4370;48.916;8.380;2022-09-27T12:12:05;3.43;;;2.20;;
8665;SDS011;4370;48.916;8.380;2022-09-27T12:15:02;4.33;;;1.70;;
8665;SDS011;4370;48.916;8.380;2022-09-27T12:17:29;2.10;;;1.63;;
8665;SDS011;4370;48.916;8.380;2022-09-27T12:20:18;2.87;;;1.80;;
8665;SDS011;4370;48.916;8.380;2022-09-27T12:25:21;3.13;;;1.53;;
8665;SDS011;4370;48.916;8.380;2022-09-27T12:27:53;2.50;;;1.50;;
8665;SDS011;4370;48.916;8.380;2022-09-27T12:30:41;2.33;;;1.47;;
8665;SDS011;4370;48.916;8.380;2022-09-27T12:33:25;2.50;;;1.80;;
8665;SDS011;4370;48.916;8.380;2022-09-27T12:35:59;1.37;;;1.27;;
8665;SDS011;4370;48.916;8.380;2022-09-27T12:41:01;2.13;;;1.40;;
8665;SDS011;4370;48.916;8.380;2022-09-27T12:43:31;1.30;;;1.20;;
8665;SDS011;4370;48.916;8.380;2022-09-27T12:49:12;3.00;;;1.40;;
8665;SDS011;4370;48.916;8.380;2022-09-27T12:51:42;1.97;;;1.17;;
8665;SDS011;4370;48.916;8.380;2022-09-27T12:57:26;2.30;;;1.33;;
8665;SDS011;4370;48.916;8.380;2022-09-27T13:00:04;2.13;;;1.40;;
8665;SDS011;4370;48.916;8.380;2022-09-27T13:11:30;1.40;;;1.30;;
8665;SDS011;4370;48.916;8.380;2022-09-27T13:14:16;1.60;;;1.37;;
8665;SDS011;4370;48.916;8.380;2022-09-27T13:16:50;1.60;;;1.50;;
8665;SDS011;4370;48.916;8.380;2022-09-27T13:22:04;3.10;;;1.40;;
8665;SDS011;4370;48.916;8.380;2022-09-27T13:24:53;3.57;;;1.40;;
8665;SDS011;4370;48.916;8.380;2022-09-27T13:32:36;2.80;;;1.67;;
8665;SDS011;4370;48.916;8.380;2022-09-27T13:35:21;2.10;;;1.50;;
8665;SDS011;4370;48.916;8.380;2022-09-27T13:38:19;2.90;;;1.43;;
8665;SDS011;4370;48.916;8.380;2022-09-27T13:40:48;2.53;;;1.50;;
8665;SDS011;4370;48.916;8.380;2022-09-27T13:45:58;2.33;;;1.40;;
8665;SDS011;4370;48.916;8.380;2022-09-27T13:48:31;1.70;;;1.30;;
8665;SDS011;4370;48.916;8.380;2022-09-27T13:51:16;2.10;;;1.27;;
8665;SDS011;4370;48.916;8.380;2022-09-27T13:54:02;2.50;;;1.30;;
8665;SDS011;4370;48.916;8.380;2022-09-27T13:59:05;2.27;;;1.57;;
8665;SDS011;4370;48.916;8.380;2022-09-27T14:01:35;1.40;;;1.30;;
8665;SDS011;4370;48.916;8.380;2022-09-27T14:06:54;1.60;;;1.23;;
8665;SDS011;4370;48.916;8.380;2022-09-27T14:09:26;3.07;;;1.40;;
8665;SDS011;4370;48.916;8.380;2022-09-27T14:11:57;2.30;;;1.30;;
8665;SDS011;4370;48.916;8.380;2022-09-27T14:14:25;1.50;;;1.40;;
8665;SDS011;4370;48.916;8.380;2022-09-27T14:16:54;2.50;;;1.67;;
8665;SDS011;4370;48.916;8.380;2022-09-27T14:19:23;2.10;;;1.40;;
8665;SDS011;4370;48.916;8.380;2022-09-27T14:21:50;3.07;;;1.70;;
8665;SDS011;4370;48.916;8.380;2022-09-27T14:26:44;3.60;;;1.50;;
8665;SDS011;4370;48.916;8.380;2022-09-27T14:29:17;2.87;;;1.83;;
8665;SDS011;4370;48.916;8.380;2022-09-27T14:31:45;3.00;;;1.40;;
8665;SDS011;4370;48.916;8.380;2022-09-27T14:34:13;3.07;;;1.50;;
8665;SDS011;4370;48.916;8.380;2022-09-27T14:36:40;3.47;;;1.57;;
8665;SDS011;4370;48.916;8.380;2022-09-27T14:39:28;1.57;;;1.47;;
8665;SDS011;4370;48.916;8.380;2022-09-27T14:42:02;3.83;;;1.63;;
8665;SDS011;4370;48.916;8.380;2022-09-27T14:44:30;2.17;;;1.57;;
8665;SDS011;4370;48.916;8.380;2022-09-27T14:47:14;4.20;;;1.70;;
8665;SDS011;4370;48.916;8.380;2022-09-27T14:49:53;2.47;;;1.47;;
8665;SDS011;4370;48.916;8.380;2022-09-27T14:52:28;2.23;;;1.40;;
8665;SDS011;4370;48.916;8.380;2022-09-27T14:57:23;3.10;;;1.80;;
8665;SDS011;4370;48.916;8.380;2022-09-27T14:59:51;2.07;;;1.70;;
8665;SDS011;4370;48.916;8.380;2022-09-27T15:02:18;2.97;;;1.80;;
8665;SDS011;4370;48.916;8.380;2022-09-27T15:04:46;2.73;;;1.70;;
8665;SDS011;4370;48.916;8.380;2022-09-27T15:07:12;3.10;;;1.80;;
8665;SDS011;4370;48.916;8.380;2022-09-27T15:09:42;1.60;;;1.50;;
8665;SDS011;4370;48.916;8.380;2022-09-27T15:12:09;2.60;;;1.60;;
8665;SDS011;4370;48.916;8.380;2022-09-27T15:14:40;3.23;;;1.50;;
8665;SDS011;4370;48.916;8.380;2022-09-27T15:17:14;2.40;;;1.37;;
8665;SDS011;4370;48.916;8.380;2022-09-27T15:19:54;3.40;;;1.67;;
8665;SDS011;4370;48.916;8.380;2022-09-27T15:22:33;2.97;;;1.80;;
8665;SDS011;4370;48.916;8.380;2022-09-27T15:25:22;2.83;;;1.63;;
8665;SDS011;4370;48.916;8.380;2022-09-27T15:27:59;7.03;;;1.63;;
8665;SDS011;4370;48.916;8.380;2022-09-27T15:30:28;3.17;;;1.40;;
8665;SDS011;4370;48.916;8.380;2022-09-27T15:32:58;4.87;;;1.57;;
8665;SDS011;4370;48.916;8.380;2022-09-27T15:35:26;2.40;;;1.30;;
8665;SDS011;4370;48.916;8.380;2022-09-27T15:38:41;2.27;;;1.43;;
8665;SDS011;4370;48.916;8.380;2022-09-27T15:43:21;4.00;;;1.50;;
8665;SDS011;4370;48.916;8.380;2022-09-27T15:45:56;2.93;;;1.60;;
8665;SDS011;4370;48.916;8.380;2022-09-27T15:48:26;4.57;;;1.60;;
8665;SDS011;4370;48.916;8.380;2022-09-27T15:50:52;2.80;;;1.60;;
8665;SDS011;4370;48.916;8.380;2022-09-27T15:55:59;2.73;;;1.60;;
8665;SDS011;4370;48.916;8.380;2022-09-27T15:58:26;3.27;;;1.60;;
8665;SDS011;4370;48.916;8.380;2022-09-27T16:03:19;2.20;;;1.40;;
8665;SDS011;4370;48.916;8.380;2022-09-27T16:05:45;2.77;;;1.50;;
8665;SDS011;4370;48.916;8.380;2022-09-27T16:08:11;2.77;;;1.37;;
8665;SDS011;4370;48.916;8.380;2022-09-27T16:10:41;3.93;;;1.40;;
8665;SDS011;4370;48.916;8.380;2022-09-27T16:13:09;1.67;;;1.43;;
8665;SDS011;4370;48.916;8.380;2022-09-27T16:15:35;2.50;;;1.53;;
8665;SDS011;4370;48.916;8.380;2022-09-27T16:18:02;3.27;;;1.60;;
8665;SDS011;4370;48.916;8.380;2022-09-27T16:20:28;2.03;;;1.53;;
8665;SDS011;4370;48.916;8.380;2022-09-27T16:22:55;2.20;;;1.60;;
8665;SDS011;4370;48.916;8.380;2022-09-27T16:25:22;4.23;;;1.90;;
8665;SDS011;4370;48.916;8.380;2022-09-27T16:27:48;7.03;;;1.90;;
8665;SDS011;4370;48.916;8.380;2022-09-27T16:30:14;1.87;;;1.40;;
8665;SDS011;4370;48.916;8.380;2022-09-27T16:32:45;2.60;;;1.60;;
8665;SDS011;4370;48.916;8.380;2022-09-27T16:35:12;4.57;;;1.50;;
8665;SDS011;4370;48.916;8.380;2022-09-27T16:37:38;1.33;;;1.23;;
8665;SDS011;4370;48.916;8.380;2022-09-27T16:40:05;2.83;;;1.60;;
8665;SDS011;4370;48.916;8.380;2022-09-27T16:42:32;5.00;;;1.87;;
8665;SDS011;4370;48.916;8.380;2022-09-27T16:44:58;2.53;;;1.80;;
8665;SDS011;4370;48.916;8.380;2022-09-27T16:47:25;2.67;;;1.80;;
8665;SDS011;4370;48.916;8.380;2022-09-27T16:49:51;6.97;;;2.00;;
8665;SDS011;4370;48.916;8.380;2022-09-27T16:52:36;2.30;;;1.80;;
8665;SDS011;4370;48.916;8.380;2022-09-27T16:55:02;2.97;;;2.10;;
8665;SDS011;4370;48.916;8.380;2022-09-27T16:57:28;5.50;;;1.93;;
8665;SDS011;4370;48.916;8.380;2022-09-27T16:59:57;3.40;;;1.90;;
8665;SDS011;4370;48.916;8.380;2022-09-27T17:02:23;3.87;;;1.97;;
8665;SDS011;4370;48.916;8.380;2022-09-27T17:04:49;3.00;;;2.00;;
8665;SDS011;4370;48.916;8.380;2022-09-27T17:07:15;3.23;;;1.83;;
8665;SDS011;4370;48.916;8.380;2022-09-27T17:09:41;5.73;;;2.00;;
8665;SDS011;4370;48.916;8.380;2022-09-27T17:12:07;4.70;;;1.80;;
8665;SDS011;4370;48.916;8.380;2022-09-27T17:14:33;2.90;;;1.83;;
8665;SDS011;4370;48.916;8.380;2022-09-27T17:16:59;3.83;;;1.80;;
8665;SDS011;4370;48.916;8.380;2022-09-27T17:19:25;2.63;;;1.97;;
8665;SDS011;4370;48.916;8.380;2022-09-27T17:21:52;2.93;;;1.70;;
8665;SDS011;4370;48.916;8.380;2022-09-27T17:24:19;3.03;;;1.80;;
8665;SDS011;4370;48.916;8.380;2022-09-27T17:26:45;3.80;;;1.70;;
8665;SDS011;4370;48.916;8.380;2022-09-27T17:29:11;6.33;;;2.00;;
8665;SDS011;4370;48.916;8.380;2022-09-27T17:31:38;8.07;;;1.80;;
8665;SDS011;4370;48.916;8.380;2022-09-27T17:34:05;2.50;;;1.80;;
8665;SDS011;4370;48.916;8.380;2022-09-27T17:36:36;5.43;;;2.00;;
8665;SDS011;4370;48.916;8.380;2022-09-27T17:39:05;3.87;;;1.90;;
8665;SDS011;4370;48.916;8.380;2022-09-27T17:41:31;3.60;;;2.57;;
8665;SDS011;4370;48.916;8.380;2022-09-27T17:43:59;4.23;;;2.13;;